Gillam, Canada
Current Conditions -  °F | °C
As of 10:00 PM on Friday 24 Oct 2014 (Local Time) from CYGX Reporting Station
Light Rain Light Rain  
Wind Chill: 37°   Ceiling: 200
Heat Index: 43°   Visibility: 6mi
Dew Point: 43°   Wind: 9mph
Humidity: 100%   Direction: 290°WNW
Pressure: 29.36"   Gusts: NA
Location:  56.35°N, 94.71°W
Report Text: CYGX 250300Z 29008KT 6SM -RADZ BR OVC002 06/06 A2936 RMK ST8 CIG RAG SLP951
Loading
Personal Weather Stations






























Interactive Weather Map
Tropical Storm Tracking
New forecast layout! Learn more

10-Day Weather Forecast

Advertisements
Track Severe Weather on mobile